Burnside, Illinois
Current Conditions -  °F | °C
As of 7:15 PM on Wednesday 26 Nov 2014 (Local Time) from KFSW Reporting Station
Light Snow Light Snow  
Wind Chill: 23°   Ceiling: 1100
Heat Index: 30°   Visibility: 3mi
Dew Point: 30°   Wind: 8mph
Humidity: 100%   Direction: 40°NE
Pressure: 30.15"   Gusts: NA
Location:  40.5°N, 91.1°W
Report Text: KFSW 270115Z AUTO 04007KT 3SM -SN SCT007 BKN011 OVC060 M01/M01 A3015 RMK AO2
Loading
Personal Weather Stations






























Interactive Weather Map New forecast layout! Learn more

10-Day Weather Forecast

Advertisements
Track Severe Weather on mobile